sensor_id;sensor_type;location;lat;lon;timestamp;P1;durP1;ratioP1;P2;durP2;ratioP2
41709;SDS011;59402;48.396;-4.472;2022-11-13T00:00:35;13.83;;;6.77;;
41709;SDS011;59402;48.396;-4.472;2022-11-13T00:03:19;14.05;;;7.30;;
41709;SDS011;59402;48.396;-4.472;2022-11-13T00:06:03;15.40;;;6.57;;
41709;SDS011;59402;48.396;-4.472;2022-11-13T00:08:51;12.93;;;6.72;;
41709;SDS011;59402;48.396;-4.472;2022-11-13T00:11:37;16.55;;;7.45;;
41709;SDS011;59402;48.396;-4.472;2022-11-13T00:14:21;12.20;;;6.80;;
41709;SDS011;59402;48.396;-4.472;2022-11-13T00:17:05;12.80;;;7.35;;
41709;SDS011;59402;48.396;-4.472;2022-11-13T00:19:49;16.45;;;7.80;;
41709;SDS011;59402;48.396;-4.472;2022-11-13T00:22:33;16.17;;;7.13;;
41709;SDS011;59402;48.396;-4.472;2022-11-13T00:25:17;15.57;;;7.28;;
41709;SDS011;59402;48.396;-4.472;2022-11-13T00:28:01;15.82;;;7.78;;
41709;SDS011;59402;48.396;-4.472;2022-11-13T00:30:45;15.40;;;7.80;;
41709;SDS011;59402;48.396;-4.472;2022-11-13T00:33:29;14.75;;;8.00;;
41709;SDS011;59402;48.396;-4.472;2022-11-13T00:36:14;15.77;;;7.43;;
41709;SDS011;59402;48.396;-4.472;2022-11-13T00:39:08;19.25;;;7.68;;
41709;SDS011;59402;48.396;-4.472;2022-11-13T00:41:52;12.60;;;7.30;;
41709;SDS011;59402;48.396;-4.472;2022-11-13T00:44:36;10.25;;;6.45;;
41709;SDS011;59402;48.396;-4.472;2022-11-13T00:47:20;13.63;;;6.63;;
41709;SDS011;59402;48.396;-4.472;2022-11-13T00:50:06;14.10;;;5.83;;
41709;SDS011;59402;48.396;-4.472;2022-11-13T00:52:51;17.17;;;6.57;;
41709;SDS011;59402;48.396;-4.472;2022-11-13T00:55:34;13.45;;;5.88;;
41709;SDS011;59402;48.396;-4.472;2022-11-13T00:58:19;15.52;;;6.13;;
41709;SDS011;59402;48.396;-4.472;2022-11-13T01:01:06;16.80;;;6.32;;
41709;SDS011;59402;48.396;-4.472;2022-11-13T01:03:53;16.02;;;5.60;;
41709;SDS011;59402;48.396;-4.472;2022-11-13T01:06:37;10.75;;;4.95;;
41709;SDS011;59402;48.396;-4.472;2022-11-13T01:09:21;15.10;;;5.32;;
41709;SDS011;59402;48.396;-4.472;2022-11-13T01:12:05;15.00;;;5.18;;
41709;SDS011;59402;48.396;-4.472;2022-11-13T01:14:49;11.95;;;5.40;;
41709;SDS011;59402;48.396;-4.472;2022-11-13T01:17:33;13.90;;;5.53;;
41709;SDS011;59402;48.396;-4.472;2022-11-13T01:20:17;12.25;;;5.20;;
41709;SDS011;59402;48.396;-4.472;2022-11-13T01:23:01;15.02;;;5.07;;
41709;SDS011;59402;48.396;-4.472;2022-11-13T01:25:46;16.50;;;5.43;;
41709;SDS011;59402;48.396;-4.472;2022-11-13T01:28:30;10.98;;;5.18;;
41709;SDS011;59402;48.396;-4.472;2022-11-13T01:31:18;15.20;;;5.22;;
41709;SDS011;59402;48.396;-4.472;2022-11-13T01:34:05;13.90;;;4.93;;
41709;SDS011;59402;48.396;-4.472;2022-11-13T01:36:49;11.43;;;5.22;;
41709;SDS011;59402;48.396;-4.472;2022-11-13T01:39:33;14.38;;;5.45;;
41709;SDS011;59402;48.396;-4.472;2022-11-13T01:42:17;18.00;;;5.47;;
41709;SDS011;59402;48.396;-4.472;2022-11-13T01:45:02;12.05;;;5.53;;
41709;SDS011;59402;48.396;-4.472;2022-11-13T01:47:47;16.10;;;5.28;;
41709;SDS011;59402;48.396;-4.472;2022-11-13T01:50:31;12.75;;;5.55;;
41709;SDS011;59402;48.396;-4.472;2022-11-13T01:53:14;13.27;;;4.97;;
41709;SDS011;59402;48.396;-4.472;2022-11-13T01:55:59;16.90;;;5.53;;
41709;SDS011;59402;48.396;-4.472;2022-11-13T01:58:45;14.55;;;4.90;;
41709;SDS011;59402;48.396;-4.472;2022-11-13T02:01:33;12.65;;;4.70;;
41709;SDS011;59402;48.396;-4.472;2022-11-13T02:04:18;15.20;;;5.60;;
41709;SDS011;59402;48.396;-4.472;2022-11-13T02:07:03;10.75;;;4.72;;
41709;SDS011;59402;48.396;-4.472;2022-11-13T02:09:54;12.02;;;4.63;;
41709;SDS011;59402;48.396;-4.472;2022-11-13T02:12:41;14.30;;;4.97;;
41709;SDS011;59402;48.396;-4.472;2022-11-13T02:15:28;19.42;;;5.43;;
41709;SDS011;59402;48.396;-4.472;2022-11-13T02:18:16;12.00;;;5.10;;
41709;SDS011;59402;48.396;-4.472;2022-11-13T02:27:02;11.68;;;4.78;;
41709;SDS011;59402;48.396;-4.472;2022-11-13T02:29:48;13.40;;;5.10;;
41709;SDS011;59402;48.396;-4.472;2022-11-13T02:32:32;17.52;;;5.55;;
41709;SDS011;59402;48.396;-4.472;2022-11-13T02:35:18;16.70;;;5.68;;
41709;SDS011;59402;48.396;-4.472;2022-11-13T02:38:04;12.10;;;5.18;;
41709;SDS011;59402;48.396;-4.472;2022-11-13T02:40:48;9.90;;;4.80;;
41709;SDS011;59402;48.396;-4.472;2022-11-13T02:43:33;16.38;;;5.15;;
41709;SDS011;59402;48.396;-4.472;2022-11-13T02:46:16;15.50;;;5.25;;
41709;SDS011;59402;48.396;-4.472;2022-11-13T02:49:00;18.00;;;5.85;;
41709;SDS011;59402;48.396;-4.472;2022-11-13T02:51:45;14.63;;;5.80;;
41709;SDS011;59402;48.396;-4.472;2022-11-13T02:54:29;11.15;;;5.22;;
41709;SDS011;59402;48.396;-4.472;2022-11-13T02:57:13;12.57;;;5.18;;
41709;SDS011;59402;48.396;-4.472;2022-11-13T02:59:57;12.07;;;5.38;;
41709;SDS011;59402;48.396;-4.472;2022-11-13T03:02:41;12.77;;;4.93;;
41709;SDS011;59402;48.396;-4.472;2022-11-13T03:05:25;19.33;;;5.68;;
41709;SDS011;59402;48.396;-4.472;2022-11-13T03:08:09;15.93;;;5.80;;
41709;SDS011;59402;48.396;-4.472;2022-11-13T03:10:53;17.60;;;6.28;;
41709;SDS011;59402;48.396;-4.472;2022-11-13T03:13:37;14.75;;;5.00;;
41709;SDS011;59402;48.396;-4.472;2022-11-13T03:16:22;12.25;;;5.35;;
41709;SDS011;59402;48.396;-4.472;2022-11-13T03:19:06;16.65;;;5.70;;
41709;SDS011;59402;48.396;-4.472;2022-11-13T03:21:50;14.90;;;5.50;;
41709;SDS011;59402;48.396;-4.472;2022-11-13T03:24:34;19.27;;;6.65;;
41709;SDS011;59402;48.396;-4.472;2022-11-13T03:27:18;13.35;;;5.63;;
41709;SDS011;59402;48.396;-4.472;2022-11-13T03:30:03;14.68;;;4.80;;
41709;SDS011;59402;48.396;-4.472;2022-11-13T03:32:51;17.02;;;5.72;;
41709;SDS011;59402;48.396;-4.472;2022-11-13T03:35:36;15.43;;;5.38;;
41709;SDS011;59402;48.396;-4.472;2022-11-13T03:38:20;14.85;;;5.82;;
41709;SDS011;59402;48.396;-4.472;2022-11-13T03:41:04;15.63;;;5.03;;
41709;SDS011;59402;48.396;-4.472;2022-11-13T03:43:48;11.05;;;4.75;;
41709;SDS011;59402;48.396;-4.472;2022-11-13T03:46:32;16.83;;;4.97;;
41709;SDS011;59402;48.396;-4.472;2022-11-13T03:49:16;12.30;;;4.90;;
41709;SDS011;59402;48.396;-4.472;2022-11-13T03:52:00;16.13;;;5.30;;
41709;SDS011;59402;48.396;-4.472;2022-11-13T03:54:44;14.40;;;5.28;;
41709;SDS011;59402;48.396;-4.472;2022-11-13T03:57:28;15.15;;;4.82;;
41709;SDS011;59402;48.396;-4.472;2022-11-13T04:00:12;16.63;;;5.88;;
41709;SDS011;59402;48.396;-4.472;2022-11-13T04:02:57;12.13;;;4.68;;
41709;SDS011;59402;48.396;-4.472;2022-11-13T04:05:41;12.18;;;4.75;;
41709;SDS011;59402;48.396;-4.472;2022-11-13T04:08:26;14.98;;;5.57;;
41709;SDS011;59402;48.396;-4.472;2022-11-13T04:11:10;14.32;;;4.80;;
41709;SDS011;59402;48.396;-4.472;2022-11-13T04:13:55;12.25;;;4.97;;
41709;SDS011;59402;48.396;-4.472;2022-11-13T04:16:39;19.30;;;5.15;;
41709;SDS011;59402;48.396;-4.472;2022-11-13T04:19:23;16.65;;;4.80;;
41709;SDS011;59402;48.396;-4.472;2022-11-13T04:22:07;11.02;;;4.80;;
41709;SDS011;59402;48.396;-4.472;2022-11-13T04:24:52;13.07;;;5.05;;
41709;SDS011;59402;48.396;-4.472;2022-11-13T04:27:36;12.20;;;4.57;;
41709;SDS011;59402;48.396;-4.472;2022-11-13T04:30:20;14.93;;;5.32;;
41709;SDS011;59402;48.396;-4.472;2022-11-13T04:33:03;12.82;;;4.85;;
41709;SDS011;59402;48.396;-4.472;2022-11-13T04:35:48;16.02;;;5.40;;
41709;SDS011;59402;48.396;-4.472;2022-11-13T04:38:31;16.77;;;5.18;;
41709;SDS011;59402;48.396;-4.472;2022-11-13T04:41:16;15.25;;;5.68;;
41709;SDS011;59402;48.396;-4.472;2022-11-13T04:44:19;13.30;;;4.85;;
41709;SDS011;59402;48.396;-4.472;2022-11-13T04:47:03;16.92;;;5.28;;
41709;SDS011;59402;48.396;-4.472;2022-11-13T04:49:47;18.55;;;5.32;;
41709;SDS011;59402;48.396;-4.472;2022-11-13T04:52:31;15.38;;;5.22;;
41709;SDS011;59402;48.396;-4.472;2022-11-13T04:55:15;15.70;;;6.35;;
41709;SDS011;59402;48.396;-4.472;2022-11-13T04:57:59;12.15;;;5.20;;
41709;SDS011;59402;48.396;-4.472;2022-11-13T05:00:43;15.70;;;5.53;;
41709;SDS011;59402;48.396;-4.472;2022-11-13T05:03:27;15.73;;;5.45;;
41709;SDS011;59402;48.396;-4.472;2022-11-13T05:06:11;13.95;;;5.32;;
41709;SDS011;59402;48.396;-4.472;2022-11-13T05:08:55;16.55;;;5.93;;
41709;SDS011;59402;48.396;-4.472;2022-11-13T05:11:39;15.63;;;6.30;;
41709;SDS011;59402;48.396;-4.472;2022-11-13T05:14:23;12.60;;;6.07;;
41709;SDS011;59402;48.396;-4.472;2022-11-13T05:17:08;19.05;;;6.07;;
41709;SDS011;59402;48.396;-4.472;2022-11-13T05:19:53;16.95;;;6.45;;
41709;SDS011;59402;48.396;-4.472;2022-11-13T05:22:37;18.13;;;6.50;;
41709;SDS011;59402;48.396;-4.472;2022-11-13T05:25:21;10.55;;;6.55;;
41709;SDS011;59402;48.396;-4.472;2022-11-13T05:28:05;13.40;;;6.30;;
41709;SDS011;59402;48.396;-4.472;2022-11-13T05:30:49;16.95;;;7.07;;
41709;SDS011;59402;48.396;-4.472;2022-11-13T05:33:33;16.70;;;6.35;;
41709;SDS011;59402;48.396;-4.472;2022-11-13T05:36:19;16.48;;;6.75;;
41709;SDS011;59402;48.396;-4.472;2022-11-13T05:39:04;15.05;;;5.85;;
41709;SDS011;59402;48.396;-4.472;2022-11-13T05:41:48;11.95;;;5.97;;
41709;SDS011;59402;48.396;-4.472;2022-11-13T05:44:32;25.10;;;7.10;;
41709;SDS011;59402;48.396;-4.472;2022-11-13T05:47:16;15.15;;;5.53;;
41709;SDS011;59402;48.396;-4.472;2022-11-13T05:50:00;16.05;;;6.38;;
41709;SDS011;59402;48.396;-4.472;2022-11-13T05:52:44;15.25;;;5.72;;
41709;SDS011;59402;48.396;-4.472;2022-11-13T05:55:28;13.38;;;5.70;;
41709;SDS011;59402;48.396;-4.472;2022-11-13T05:58:11;14.65;;;5.63;;
41709;SDS011;59402;48.396;-4.472;2022-11-13T06:01:09;13.57;;;5.93;;
41709;SDS011;59402;48.396;-4.472;2022-11-13T06:03:56;17.88;;;5.93;;
41709;SDS011;59402;48.396;-4.472;2022-11-13T06:06:42;10.63;;;5.30;;
41709;SDS011;59402;48.396;-4.472;2022-11-13T06:09:26;13.13;;;4.72;;
41709;SDS011;59402;48.396;-4.472;2022-11-13T06:12:10;16.45;;;5.65;;
41709;SDS011;59402;48.396;-4.472;2022-11-13T06:14:54;14.23;;;5.30;;
41709;SDS011;59402;48.396;-4.472;2022-11-13T06:17:38;16.77;;;5.95;;
41709;SDS011;59402;48.396;-4.472;2022-11-13T06:20:22;13.55;;;5.63;;
41709;SDS011;59402;48.396;-4.472;2022-11-13T06:23:06;15.32;;;4.93;;
41709;SDS011;59402;48.396;-4.472;2022-11-13T06:25:49;16.13;;;5.30;;
41709;SDS011;59402;48.396;-4.472;2022-11-13T06:28:34;13.27;;;5.30;;
41709;SDS011;59402;48.396;-4.472;2022-11-13T06:31:20;16.00;;;5.43;;
41709;SDS011;59402;48.396;-4.472;2022-11-13T06:34:06;16.25;;;5.38;;
41709;SDS011;59402;48.396;-4.472;2022-11-13T06:36:50;12.57;;;4.93;;
41709;SDS011;59402;48.396;-4.472;2022-11-13T06:39:34;12.73;;;4.95;;
41709;SDS011;59402;48.396;-4.472;2022-11-13T06:42:18;14.50;;;5.95;;
41709;SDS011;59402;48.396;-4.472;2022-11-13T06:45:02;11.65;;;5.15;;
41709;SDS011;59402;48.396;-4.472;2022-11-13T06:47:45;14.63;;;5.13;;
41709;SDS011;59402;48.396;-4.472;2022-11-13T06:50:29;15.10;;;5.38;;
41709;SDS011;59402;48.396;-4.472;2022-11-13T06:53:14;15.55;;;5.00;;
41709;SDS011;59402;48.396;-4.472;2022-11-13T06:55:59;15.95;;;4.93;;
41709;SDS011;59402;48.396;-4.472;2022-11-13T06:58:43;15.90;;;5.88;;
41709;SDS011;59402;48.396;-4.472;2022-11-13T07:01:27;13.82;;;5.32;;
41709;SDS011;59402;48.396;-4.472;2022-11-13T07:04:11;14.73;;;5.20;;
41709;SDS011;59402;48.396;-4.472;2022-11-13T07:06:56;15.80;;;6.18;;
41709;SDS011;59402;48.396;-4.472;2022-11-13T07:09:40;14.32;;;5.68;;
41709;SDS011;59402;48.396;-4.472;2022-11-13T07:12:26;15.68;;;5.40;;
41709;SDS011;59402;48.396;-4.472;2022-11-13T07:15:11;14.63;;;5.00;;
41709;SDS011;59402;48.396;-4.472;2022-11-13T07:17:55;19.95;;;5.63;;
41709;SDS011;59402;48.396;-4.472;2022-11-13T07:20:43;17.98;;;6.35;;
41709;SDS011;59402;48.396;-4.472;2022-11-13T07:23:27;15.70;;;5.65;;
41709;SDS011;59402;48.396;-4.472;2022-11-13T07:26:11;16.58;;;5.50;;
41709;SDS011;59402;48.396;-4.472;2022-11-13T07:28:55;16.00;;;6.22;;
41709;SDS011;59402;48.396;-4.472;2022-11-13T07:31:39;14.90;;;5.18;;
41709;SDS011;59402;48.396;-4.472;2022-11-13T07:34:23;18.13;;;5.85;;
41709;SDS011;59402;48.396;-4.472;2022-11-13T07:37:07;18.98;;;6.00;;
41709;SDS011;59402;48.396;-4.472;2022-11-13T07:39:51;18.05;;;6.10;;
41709;SDS011;59402;48.396;-4.472;2022-11-13T07:42:35;15.98;;;5.60;;
41709;SDS011;59402;48.396;-4.472;2022-11-13T07:45:19;16.70;;;5.63;;
41709;SDS011;59402;48.396;-4.472;2022-11-13T07:48:03;12.80;;;5.03;;
41709;SDS011;59402;48.396;-4.472;2022-11-13T07:50:48;14.30;;;5.38;;
41709;SDS011;59402;48.396;-4.472;2022-11-13T07:53:32;16.13;;;5.22;;
41709;SDS011;59402;48.396;-4.472;2022-11-13T07:56:18;15.10;;;5.45;;
41709;SDS011;59402;48.396;-4.472;2022-11-13T07:59:02;12.23;;;5.78;;
41709;SDS011;59402;48.396;-4.472;2022-11-13T08:01:46;17.17;;;6.60;;
41709;SDS011;59402;48.396;-4.472;2022-11-13T08:04:30;13.55;;;4.88;;
41709;SDS011;59402;48.396;-4.472;2022-11-13T08:07:15;21.67;;;6.35;;
41709;SDS011;59402;48.396;-4.472;2022-11-13T08:09:59;11.48;;;5.35;;
41709;SDS011;59402;48.396;-4.472;2022-11-13T08:12:43;14.85;;;6.03;;
41709;SDS011;59402;48.396;-4.472;2022-11-13T08:15:28;18.63;;;5.05;;
41709;SDS011;59402;48.396;-4.472;2022-11-13T08:18:13;15.90;;;5.25;;
41709;SDS011;59402;48.396;-4.472;2022-11-13T08:20:59;12.60;;;5.63;;
41709;SDS011;59402;48.396;-4.472;2022-11-13T08:23:44;17.98;;;5.78;;
41709;SDS011;59402;48.396;-4.472;2022-11-13T08:26:29;18.92;;;5.05;;
41709;SDS011;59402;48.396;-4.472;2022-11-13T08:29:13;15.90;;;5.07;;
41709;SDS011;59402;48.396;-4.472;2022-11-13T08:31:57;22.33;;;5.18;;
41709;SDS011;59402;48.396;-4.472;2022-11-13T08:34:41;14.65;;;5.15;;
41709;SDS011;59402;48.396;-4.472;2022-11-13T08:37:25;18.75;;;5.40;;
41709;SDS011;59402;48.396;-4.472;2022-11-13T08:40:10;12.98;;;5.43;;
41709;SDS011;59402;48.396;-4.472;2022-11-13T08:43:01;15.23;;;5.32;;
41709;SDS011;59402;48.396;-4.472;2022-11-13T08:45:46;16.00;;;5.15;;
41709;SDS011;59402;48.396;-4.472;2022-11-13T08:48:30;18.30;;;5.85;;
41709;SDS011;59402;48.396;-4.472;2022-11-13T08:51:14;20.73;;;5.47;;
41709;SDS011;59402;48.396;-4.472;2022-11-13T08:53:58;16.92;;;4.55;;
41709;SDS011;59402;48.396;-4.472;2022-11-13T08:56:43;24.67;;;5.20;;
41709;SDS011;59402;48.396;-4.472;2022-11-13T08:59:30;16.80;;;5.05;;
41709;SDS011;59402;48.396;-4.472;2022-11-13T09:02:14;15.15;;;5.10;;
41709;SDS011;59402;48.396;-4.472;2022-11-13T09:04:59;19.23;;;5.38;;
41709;SDS011;59402;48.396;-4.472;2022-11-13T09:07:43;17.02;;;5.50;;
41709;SDS011;59402;48.396;-4.472;2022-11-13T09:10:27;15.23;;;5.68;;
41709;SDS011;59402;48.396;-4.472;2022-11-13T09:13:11;14.07;;;4.88;;
41709;SDS011;59402;48.396;-4.472;2022-11-13T09:15:56;20.23;;;5.00;;
41709;SDS011;59402;48.396;-4.472;2022-11-13T09:18:41;19.77;;;5.47;;
41709;SDS011;59402;48.396;-4.472;2022-11-13T09:21:25;15.18;;;4.82;;
41709;SDS011;59402;48.396;-4.472;2022-11-13T09:24:09;13.48;;;4.53;;
41709;SDS011;59402;48.396;-4.472;2022-11-13T09:26:53;20.70;;;5.57;;
41709;SDS011;59402;48.396;-4.472;2022-11-13T09:29:37;19.88;;;5.30;;
41709;SDS011;59402;48.396;-4.472;2022-11-13T09:32:21;17.20;;;5.60;;
41709;SDS011;59402;48.396;-4.472;2022-11-13T09:35:05;20.25;;;4.88;;
41709;SDS011;59402;48.396;-4.472;2022-11-13T09:37:51;14.05;;;4.88;;
41709;SDS011;59402;48.396;-4.472;2022-11-13T09:43:49;21.42;;;5.28;;
41709;SDS011;59402;48.396;-4.472;2022-11-13T09:46:49;15.43;;;5.18;;
41709;SDS011;59402;48.396;-4.472;2022-11-13T09:49:41;24.10;;;5.55;;
41709;SDS011;59402;48.396;-4.472;2022-11-13T09:52:36;18.55;;;5.05;;
41709;SDS011;59402;48.396;-4.472;2022-11-13T09:55:25;17.92;;;5.15;;
41709;SDS011;59402;48.396;-4.472;2022-11-13T09:58:23;20.50;;;5.07;;
41709;SDS011;59402;48.396;-4.472;2022-11-13T10:01:27;18.05;;;5.38;;
41709;SDS011;59402;48.396;-4.472;2022-11-13T10:04:33;19.08;;;4.28;;
41709;SDS011;59402;48.396;-4.472;2022-11-13T10:07:23;19.67;;;4.87;;
41709;SDS011;59402;48.396;-4.472;2022-11-13T10:10:49;18.52;;;5.05;;
41709;SDS011;59402;48.396;-4.472;2022-11-13T10:17:05;25.45;;;5.10;;
41709;SDS011;59402;48.396;-4.472;2022-11-13T10:22:36;20.63;;;4.70;;
41709;SDS011;59402;48.396;-4.472;2022-11-13T10:25:30;17.10;;;4.78;;
41709;SDS011;59402;48.396;-4.472;2022-11-13T10:28:19;15.55;;;4.30;;
41709;SDS011;59402;48.396;-4.472;2022-11-13T10:31:08;19.08;;;5.05;;
41709;SDS011;59402;48.396;-4.472;2022-11-13T10:33:53;14.55;;;5.10;;
41709;SDS011;59402;48.396;-4.472;2022-11-13T10:39:56;17.85;;;5.47;;
41709;SDS011;59402;48.396;-4.472;2022-11-13T10:42:40;19.27;;;5.35;;
41709;SDS011;59402;48.396;-4.472;2022-11-13T10:45:24;18.70;;;4.57;;
41709;SDS011;59402;48.396;-4.472;2022-11-13T10:48:18;21.42;;;5.25;;
41709;SDS011;59402;48.396;-4.472;2022-11-13T10:51:04;23.00;;;4.78;;
41709;SDS011;59402;48.396;-4.472;2022-11-13T10:54:37;20.20;;;4.80;;
41709;SDS011;59402;48.396;-4.472;2022-11-13T11:03:16;21.52;;;5.35;;
41709;SDS011;59402;48.396;-4.472;2022-11-13T11:06:07;16.35;;;4.70;;
41709;SDS011;59402;48.396;-4.472;2022-11-13T11:08:51;20.73;;;4.88;;
41709;SDS011;59402;48.396;-4.472;2022-11-13T11:11:35;19.33;;;4.80;;
41709;SDS011;59402;48.396;-4.472;2022-11-13T11:17:45;21.20;;;4.60;;
41709;SDS011;59402;48.396;-4.472;2022-11-13T11:21:34;17.00;;;4.57;;
41709;SDS011;59402;48.396;-4.472;2022-11-13T11:26:40;17.40;;;5.45;;
41709;SDS011;59402;48.396;-4.472;2022-11-13T11:29:32;20.60;;;5.15;;
41709;SDS011;59402;48.396;-4.472;2022-11-13T11:32:35;27.67;;;6.05;;
41709;SDS011;59402;48.396;-4.472;2022-11-13T11:41:33;23.95;;;5.32;;
41709;SDS011;59402;48.396;-4.472;2022-11-13T11:44:41;20.10;;;4.80;;
41709;SDS011;59402;48.396;-4.472;2022-11-13T11:47:39;13.18;;;4.43;;
41709;SDS011;59402;48.396;-4.472;2022-11-13T11:50:42;21.88;;;5.40;;
41709;SDS011;59402;48.396;-4.472;2022-11-13T11:56:41;16.98;;;4.75;;
41709;SDS011;59402;48.396;-4.472;2022-11-13T12:14:46;21.92;;;4.82;;
41709;SDS011;59402;48.396;-4.472;2022-11-13T12:17:57;21.08;;;4.20;;
41709;SDS011;59402;48.396;-4.472;2022-11-13T12:27:03;20.13;;;4.13;;
41709;SDS011;59402;48.396;-4.472;2022-11-13T12:35:46;20.90;;;4.20;;
41709;SDS011;59402;48.396;-4.472;2022-11-13T12:38:36;15.18;;;3.97;;
41709;SDS011;59402;48.396;-4.472;2022-11-13T12:41:37;16.25;;;4.32;;
41709;SDS011;59402;48.396;-4.472;2022-11-13T12:44:37;23.83;;;4.75;;
41709;SDS011;59402;48.396;-4.472;2022-11-13T12:47:44;21.50;;;4.55;;
41709;SDS011;59402;48.396;-4.472;2022-11-13T12:50:32;19.45;;;4.43;;
41709;SDS011;59402;48.396;-4.472;2022-11-13T12:53:23;19.63;;;5.53;;
41709;SDS011;59402;48.396;-4.472;2022-11-13T12:56:32;16.80;;;4.20;;
41709;SDS011;59402;48.396;-4.472;2022-11-13T13:16:38;24.10;;;5.00;;
41709;SDS011;59402;48.396;-4.472;2022-11-13T13:19:27;19.30;;;4.85;;
41709;SDS011;59402;48.396;-4.472;2022-11-13T13:22:23;17.15;;;4.93;;
41709;SDS011;59402;48.396;-4.472;2022-11-13T13:28:18;22.60;;;4.93;;
41709;SDS011;59402;48.396;-4.472;2022-11-13T13:37:24;24.60;;;4.70;;
41709;SDS011;59402;48.396;-4.472;2022-11-13T13:46:25;23.63;;;4.70;;
41709;SDS011;59402;48.396;-4.472;2022-11-13T13:49:14;23.08;;;5.03;;
41709;SDS011;59402;48.396;-4.472;2022-11-13T13:52:01;20.60;;;4.55;;
41709;SDS011;59402;48.396;-4.472;2022-11-13T13:54:48;26.55;;;5.85;;
41709;SDS011;59402;48.396;-4.472;2022-11-13T13:57:33;20.33;;;4.68;;
41709;SDS011;59402;48.396;-4.472;2022-11-13T14:00:23;25.27;;;4.78;;
41709;SDS011;59402;48.396;-4.472;2022-11-13T14:03:17;20.65;;;5.13;;
41709;SDS011;59402;48.396;-4.472;2022-11-13T14:06:07;20.95;;;4.85;;
41709;SDS011;59402;48.396;-4.472;2022-11-13T14:09:19;20.92;;;4.60;;
41709;SDS011;59402;48.396;-4.472;2022-11-13T14:12:06;20.05;;;4.95;;
41709;SDS011;59402;48.396;-4.472;2022-11-13T14:15:02;24.45;;;5.75;;
41709;SDS011;59402;48.396;-4.472;2022-11-13T14:17:47;29.15;;;5.68;;
41709;SDS011;59402;48.396;-4.472;2022-11-13T14:23:34;23.98;;;5.35;;
41709;SDS011;59402;48.396;-4.472;2022-11-13T14:26:22;22.35;;;4.93;;
41709;SDS011;59402;48.396;-4.472;2022-11-13T14:29:10;20.45;;;4.78;;
41709;SDS011;59402;48.396;-4.472;2022-11-13T14:32:05;22.67;;;5.68;;
41709;SDS011;59402;48.396;-4.472;2022-11-13T14:34:56;22.20;;;5.85;;
41709;SDS011;59402;48.396;-4.472;2022-11-13T14:37:44;23.70;;;5.60;;
41709;SDS011;59402;48.396;-4.472;2022-11-13T14:40:29;20.75;;;4.75;;
41709;SDS011;59402;48.396;-4.472;2022-11-13T14:43:20;22.57;;;4.93;;
41709;SDS011;59402;48.396;-4.472;2022-11-13T14:46:21;16.35;;;4.50;;
41709;SDS011;59402;48.396;-4.472;2022-11-13T14:49:13;21.48;;;4.40;;
41709;SDS011;59402;48.396;-4.472;2022-11-13T14:52:18;23.38;;;5.10;;
41709;SDS011;59402;48.396;-4.472;2022-11-13T14:55:05;20.00;;;4.18;;
41709;SDS011;59402;48.396;-4.472;2022-11-13T14:57:51;21.65;;;4.80;;
41709;SDS011;59402;48.396;-4.472;2022-11-13T15:00:35;19.40;;;4.78;;
41709;SDS011;59402;48.396;-4.472;2022-11-13T15:03:20;15.63;;;4.13;;
41709;SDS011;59402;48.396;-4.472;2022-11-13T15:06:08;23.65;;;4.75;;
41709;SDS011;59402;48.396;-4.472;2022-11-13T15:09:10;17.60;;;4.18;;
41709;SDS011;59402;48.396;-4.472;2022-11-13T15:11:57;19.23;;;4.57;;
41709;SDS011;59402;48.396;-4.472;2022-11-13T15:14:41;20.30;;;4.53;;
41709;SDS011;59402;48.396;-4.472;2022-11-13T15:17:25;21.73;;;4.60;;
41709;SDS011;59402;48.396;-4.472;2022-11-13T15:20:13;18.80;;;4.13;;
41709;SDS011;59402;48.396;-4.472;2022-11-13T15:23:00;23.50;;;4.32;;
41709;SDS011;59402;48.396;-4.472;2022-11-13T15:25:44;25.55;;;4.35;;
41709;SDS011;59402;48.396;-4.472;2022-11-13T15:28:28;18.35;;;4.03;;
41709;SDS011;59402;48.396;-4.472;2022-11-13T15:31:17;18.40;;;4.82;;
41709;SDS011;59402;48.396;-4.472;2022-11-13T15:34:03;25.00;;;4.57;;
41709;SDS011;59402;48.396;-4.472;2022-11-13T15:36:47;18.30;;;3.75;;
41709;SDS011;59402;48.396;-4.472;2022-11-13T15:39:31;15.15;;;4.65;;
41709;SDS011;59402;48.396;-4.472;2022-11-13T15:42:16;19.73;;;4.05;;
41709;SDS011;59402;48.396;-4.472;2022-11-13T15:45:02;21.73;;;4.35;;
41709;SDS011;59402;48.396;-4.472;2022-11-13T15:47:48;14.50;;;4.53;;
41709;SDS011;59402;48.396;-4.472;2022-11-13T15:50:32;18.65;;;4.57;;
41709;SDS011;59402;48.396;-4.472;2022-11-13T15:53:16;21.73;;;4.22;;
41709;SDS011;59402;48.396;-4.472;2022-11-13T15:56:00;16.25;;;4.35;;
41709;SDS011;59402;48.396;-4.472;2022-11-13T15:58:47;20.10;;;5.00;;
41709;SDS011;59402;48.396;-4.472;2022-11-13T16:01:32;27.70;;;5.45;;
41709;SDS011;59402;48.396;-4.472;2022-11-13T16:04:16;23.58;;;4.70;;
41709;SDS011;59402;48.396;-4.472;2022-11-13T16:07:00;21.90;;;5.30;;
41709;SDS011;59402;48.396;-4.472;2022-11-13T16:09:44;20.40;;;4.90;;
41709;SDS011;59402;48.396;-4.472;2022-11-13T16:12:28;17.83;;;4.78;;
41709;SDS011;59402;48.396;-4.472;2022-11-13T16:15:13;19.38;;;4.90;;
41709;SDS011;59402;48.396;-4.472;2022-11-13T16:17:59;24.80;;;5.03;;
41709;SDS011;59402;48.396;-4.472;2022-11-13T16:20:44;14.43;;;3.95;;
41709;SDS011;59402;48.396;-4.472;2022-11-13T16:23:28;21.52;;;6.13;;
41709;SDS011;59402;48.396;-4.472;2022-11-13T16:26:17;18.13;;;4.97;;
41709;SDS011;59402;48.396;-4.472;2022-11-13T16:29:05;21.38;;;5.20;;
41709;SDS011;59402;48.396;-4.472;2022-11-13T16:32:03;19.40;;;4.65;;
41709;SDS011;59402;48.396;-4.472;2022-11-13T16:34:47;21.55;;;4.90;;
41709;SDS011;59402;48.396;-4.472;2022-11-13T16:37:31;20.40;;;4.25;;
41709;SDS011;59402;48.396;-4.472;2022-11-13T16:40:17;27.33;;;5.28;;
41709;SDS011;59402;48.396;-4.472;2022-11-13T16:43:06;24.80;;;5.15;;
41709;SDS011;59402;48.396;-4.472;2022-11-13T16:45:50;23.00;;;5.25;;
41709;SDS011;59402;48.396;-4.472;2022-11-13T16:48:35;26.13;;;4.63;;
41709;SDS011;59402;48.396;-4.472;2022-11-13T16:51:19;21.70;;;4.60;;
41709;SDS011;59402;48.396;-4.472;2022-11-13T16:54:03;20.77;;;4.30;;
41709;SDS011;59402;48.396;-4.472;2022-11-13T16:56:47;22.80;;;5.20;;
41709;SDS011;59402;48.396;-4.472;2022-11-13T16:59:31;21.85;;;4.50;;
41709;SDS011;59402;48.396;-4.472;2022-11-13T17:02:16;22.08;;;5.75;;
41709;SDS011;59402;48.396;-4.472;2022-11-13T17:05:00;22.08;;;5.85;;
41709;SDS011;59402;48.396;-4.472;2022-11-13T17:07:44;31.05;;;5.13;;
41709;SDS011;59402;48.396;-4.472;2022-11-13T17:10:28;20.15;;;5.57;;
41709;SDS011;59402;48.396;-4.472;2022-11-13T17:13:13;20.83;;;6.00;;
41709;SDS011;59402;48.396;-4.472;2022-11-13T17:15:59;21.75;;;5.03;;
41709;SDS011;59402;48.396;-4.472;2022-11-13T17:18:44;23.65;;;6.05;;
41709;SDS011;59402;48.396;-4.472;2022-11-13T17:21:28;20.83;;;5.55;;
41709;SDS011;59402;48.396;-4.472;2022-11-13T17:24:12;19.73;;;5.25;;
41709;SDS011;59402;48.396;-4.472;2022-11-13T17:26:56;24.30;;;5.07;;
41709;SDS011;59402;48.396;-4.472;2022-11-13T17:29:40;22.52;;;5.70;;
41709;SDS011;59402;48.396;-4.472;2022-11-13T17:32:24;30.58;;;5.53;;
41709;SDS011;59402;48.396;-4.472;2022-11-13T17:35:10;31.58;;;6.28;;
41709;SDS011;59402;48.396;-4.472;2022-11-13T17:37:55;23.90;;;5.10;;
41709;SDS011;59402;48.396;-4.472;2022-11-13T17:40:39;25.20;;;5.50;;
41709;SDS011;59402;48.396;-4.472;2022-11-13T17:43:23;25.48;;;6.53;;
41709;SDS011;59402;48.396;-4.472;2022-11-13T17:46:11;24.45;;;5.90;;
41709;SDS011;59402;48.396;-4.472;2022-11-13T17:48:57;25.95;;;6.30;;
41709;SDS011;59402;48.396;-4.472;2022-11-13T17:51:41;23.50;;;5.50;;
41709;SDS011;59402;48.396;-4.472;2022-11-13T17:54:25;19.08;;;4.63;;
41709;SDS011;59402;48.396;-4.472;2022-11-13T17:57:12;26.65;;;5.53;;